createdAt,value
2022-08-02T00:00:59.498Z,101818.94
2022-08-02T00:03:27.645Z,101810.84
2022-08-02T00:05:57.570Z,101808.44
2022-08-02T00:08:25.953Z,101807.09
2022-08-02T00:10:54.129Z,101803.38
2022-08-02T00:13:22.182Z,101800.03
2022-08-02T00:15:50.354Z,101801.91
2022-08-02T00:18:18.465Z,101790.47
2022-08-02T00:20:46.678Z,101792.97
2022-08-02T00:23:16.141Z,101790.47
2022-08-02T00:25:55.488Z,101778.00
2022-08-02T00:28:26.850Z,101780.53
2022-08-02T00:30:57.178Z,101779.69
2022-08-02T00:34:05.613Z,101772.22
2022-08-02T00:36:13.743Z,101769.25
2022-08-02T00:38:43.252Z,101765.91
2022-08-02T00:41:16.343Z,101760.91
2022-08-02T00:43:44.600Z,101761.94
2022-08-02T00:46:12.794Z,101748.44
2022-08-02T00:48:43.196Z,101744.06
2022-08-02T00:51:11.785Z,101752.16
2022-08-02T00:53:39.958Z,101746.78
2022-08-02T00:56:09.593Z,101739.69
2022-08-02T00:58:38.337Z,101745.09
2022-08-02T01:01:06.631Z,101750.88
2022-08-02T01:03:34.896Z,101748.38
2022-08-02T01:06:18.215Z,101738.03
2022-08-02T01:08:46.587Z,101736.81
2022-08-02T01:11:16.094Z,101743.41
2022-08-02T01:13:44.238Z,101735.63
2022-08-02T01:16:15.540Z,101732.94
2022-08-02T01:18:46.867Z,101731.63
2022-08-02T01:21:47.567Z,101722.13
2022-08-02T01:24:22.676Z,101711.97
2022-08-02T01:26:53.838Z,101712.63
2022-08-02T01:29:26.151Z,101711.22
2022-08-02T01:31:56.859Z,101704.16
2022-08-02T01:34:29.567Z,101700.44
2022-08-02T01:36:59.874Z,101699.03
2022-08-02T01:39:32.563Z,101705.53
2022-08-02T01:42:01.237Z,101698.94
2022-08-02T01:44:33.330Z,101694.38
2022-08-02T01:47:02.481Z,101705.59
2022-08-02T01:49:31.423Z,101699.38
2022-08-02T01:52:17.524Z,101700.63
2022-08-02T01:54:45.661Z,101691.50
2022-08-02T01:57:13.742Z,101694.19
2022-08-02T01:59:44.263Z,101686.91
2022-08-02T02:02:12.860Z,101686.72
2022-08-02T02:04:41.208Z,101679.47
2022-08-02T02:07:09.340Z,101678.19
2022-08-02T02:09:50.152Z,101683.41
2022-08-02T02:12:19.905Z,101671.56
2022-08-02T02:14:52.113Z,101687.75
2022-08-02T02:17:52.059Z,101684.50
2022-08-02T02:20:11.113Z,101676.63
2022-08-02T02:22:39.188Z,101676.00
2022-08-02T02:25:08.861Z,101681.59
2022-08-02T02:27:40.347Z,101670.81
2022-08-02T02:30:14.600Z,101672.84
2022-08-02T02:32:43.029Z,101665.41
2022-08-02T02:35:11.103Z,101662.50
2022-08-02T02:37:39.235Z,101670.41
2022-08-02T02:40:08.920Z,101668.72
2022-08-02T02:42:37.085Z,101675.44
2022-08-02T02:45:10.279Z,101663.59
2022-08-02T02:47:40.702Z,101659.84
2022-08-02T02:50:10.342Z,101657.63
2022-08-02T02:52:38.493Z,101663.19
2022-08-02T02:55:07.336Z,101649.06
2022-08-02T02:57:35.562Z,101640.06
2022-08-02T03:00:04.077Z,101653.38
2022-08-02T03:02:32.154Z,101642.03
2022-08-02T03:05:02.915Z,101649.28
2022-08-02T03:07:31.039Z,101650.13
2022-08-02T03:09:59.714Z,101653.06
2022-08-02T03:12:31.992Z,101639.56
2022-08-02T03:15:00.925Z,101638.53
2022-08-02T03:17:38.987Z,101631.91
2022-08-02T03:20:11.989Z,101641.84
2022-08-02T03:22:40.232Z,101631.06
2022-08-02T03:25:09.575Z,101631.91
2022-08-02T03:27:37.782Z,101621.09
2022-08-02T03:30:06.763Z,101627.97
2022-08-02T03:32:35.088Z,101626.13
2022-08-02T03:35:03.235Z,101630.69
2022-08-02T03:37:32.818Z,101632.34
2022-08-02T03:40:00.988Z,101626.31
2022-08-02T03:42:29.160Z,101623.59
2022-08-02T03:44:57.286Z,101623.22
2022-08-02T03:47:25.372Z,101615.97
2022-08-02T03:49:53.425Z,101624.91
2022-08-02T03:52:21.603Z,101619.25
2022-08-02T03:54:51.038Z,101633.13
2022-08-02T03:57:19.142Z,101624.78
2022-08-02T03:59:47.455Z,101633.09
2022-08-02T04:02:15.646Z,101613.56
2022-08-02T04:04:43.718Z,101613.94
2022-08-02T04:07:11.811Z,101617.66
2022-08-02T04:09:40.856Z,101626.16
2022-08-02T04:12:10.996Z,101612.00
2022-08-02T04:14:39.291Z,101607.84
2022-08-02T04:17:08.694Z,101610.56
2022-08-02T04:19:39.493Z,101613.81
2022-08-02T04:22:08.895Z,101610.94
2022-08-02T04:24:39.451Z,101616.31
2022-08-02T04:27:49.821Z,101611.59
2022-08-02T04:29:57.110Z,101608.47
2022-08-02T04:32:25.212Z,101623.44
2022-08-02T04:35:20.822Z,101615.16
2022-08-02T04:38:09.935Z,101613.94
2022-08-02T04:40:29.494Z,101614.75
2022-08-02T04:42:57.621Z,101611.50
2022-08-02T04:45:27.393Z,101602.56
2022-08-02T04:48:04.679Z,101604.84
2022-08-02T04:50:33.287Z,101615.66
2022-08-02T04:53:01.396Z,101611.09
2022-08-02T04:55:30.123Z,101609.88
2022-08-02T04:57:58.761Z,101613.22
2022-08-02T05:00:29.123Z,101615.69
2022-08-02T05:02:57.355Z,101602.44
2022-08-02T05:05:25.891Z,101605.75
2022-08-02T05:07:54.026Z,101602.22
2022-08-02T05:10:22.245Z,101601.38
2022-08-02T05:12:50.456Z,101608.25
2022-08-02T05:15:19.118Z,101611.97
2022-08-02T05:17:49.036Z,101602.84
2022-08-02T05:20:17.385Z,101616.16
2022-08-02T05:22:45.489Z,101615.97
2022-08-02T05:25:13.599Z,101615.75
2022-08-02T05:27:41.634Z,101628.22
2022-08-02T05:30:10.347Z,101613.69
2022-08-02T05:32:44.711Z,101624.50
2022-08-02T05:35:14.386Z,101624.50
2022-08-02T05:37:43.115Z,101624.50
2022-08-02T05:40:13.120Z,101623.66
2022-08-02T05:42:41.692Z,101623.47
2022-08-02T05:45:10.400Z,101623.66
2022-08-02T05:47:38.536Z,101627.84
2022-08-02T05:50:07.740Z,101631.19
2022-08-02T05:52:47.354Z,101627.44
2022-08-02T05:55:18.257Z,101631.19
2022-08-02T05:57:53.507Z,101631.56
2022-08-02T06:00:22.154Z,101641.53
2022-08-02T06:03:19.337Z,101633.63
2022-08-02T06:05:51.861Z,101636.53
2022-08-02T06:08:22.531Z,101637.34
2022-08-02T06:10:50.957Z,101639.84
2022-08-02T06:13:20.365Z,101641.53
2022-08-02T06:15:52.901Z,101635.09
2022-08-02T06:18:28.517Z,101625.47
2022-08-02T06:20:57.962Z,101624.91
2022-08-02T06:23:29.083Z,101624.44
2022-08-02T06:25:58.032Z,101621.56
2022-08-02T06:28:26.834Z,101630.69
2022-08-02T06:30:54.981Z,101626.97
2022-08-02T06:33:23.176Z,101631.94
2022-08-02T06:35:53.274Z,101635.28
2022-08-02T06:38:24.090Z,101639.84
2022-08-02T06:40:57.043Z,101634.91
2022-08-02T06:43:28.477Z,101626.81
2022-08-02T06:45:56.569Z,101629.09
2022-08-02T06:48:44.688Z,101618.94
2022-08-02T06:51:12.785Z,101626.66
2022-08-02T06:53:41.109Z,101620.84
2022-08-02T06:56:11.029Z,101629.22
2022-08-02T06:58:41.244Z,101633.19
2022-08-02T07:01:09.918Z,101634.66
2022-08-02T07:03:38.896Z,101631.38
2022-08-02T07:06:09.011Z,101625.63
2022-08-02T07:08:38.504Z,101632.28
2022-08-02T07:11:06.700Z,101635.63
2022-08-02T07:13:39.686Z,101635.19
2022-08-02T07:16:08.340Z,101630.44
2022-08-02T07:18:36.731Z,101632.50
2022-08-02T07:21:06.190Z,101638.75
2022-08-02T07:23:37.096Z,101634.19
2022-08-02T07:26:06.096Z,101643.50
2022-08-02T07:28:35.707Z,101647.69
2022-08-02T07:31:05.722Z,101636.88
2022-08-02T07:33:38.477Z,101646.47
2022-08-02T07:36:09.760Z,101642.72
2022-08-02T07:38:44.910Z,101642.28
2022-08-02T07:41:13.789Z,101638.94
2022-08-02T07:43:43.349Z,101648.28
2022-08-02T07:46:11.600Z,101633.94
2022-08-02T07:48:40.003Z,101636.03
2022-08-02T07:51:08.204Z,101638.78
2022-08-02T07:53:51.388Z,101630.66
2022-08-02T07:56:20.094Z,101641.75
2022-08-02T07:58:49.634Z,101648.78
2022-08-02T08:01:18.590Z,101639.41
2022-08-02T08:03:47.034Z,101641.75
2022-08-02T08:06:15.158Z,101650.06
2022-08-02T08:08:44.684Z,101639.91
2022-08-02T08:11:12.819Z,101645.31
2022-08-02T08:13:41.001Z,101638.66
2022-08-02T08:16:10.478Z,101632.03
2022-08-02T08:18:38.620Z,101636.44
2022-08-02T08:21:06.695Z,101641.63
2022-08-02T08:23:36.484Z,101643.31
2022-08-02T08:26:05.281Z,101643.31
2022-08-02T08:28:33.346Z,101642.50
2022-08-02T08:31:01.836Z,101639.00
2022-08-02T08:33:31.394Z,101641.28
2022-08-02T08:35:59.679Z,101639.22
2022-08-02T08:38:31.472Z,101639.22
2022-08-02T08:40:59.583Z,101652.09
2022-08-02T08:43:27.794Z,101648.19
2022-08-02T08:45:56.552Z,101632.19
2022-08-02T08:48:30.605Z,101635.75
2022-08-02T08:51:03.120Z,101645.16
2022-08-02T08:53:36.632Z,101632.69
2022-08-02T08:56:05.613Z,101633.53
2022-08-02T08:58:33.716Z,101636.44
2022-08-02T09:01:02.002Z,101631.47
2022-08-02T09:03:33.821Z,101633.34
2022-08-02T09:06:04.956Z,101632.09
2022-08-02T09:08:34.384Z,101634.00
2022-08-02T09:11:02.649Z,101618.59
2022-08-02T09:13:45.372Z,101623.19
2022-08-02T09:16:15.014Z,101625.69
2022-08-02T09:18:45.543Z,101608.00
2022-08-02T09:21:16.077Z,101611.97
2022-08-02T09:23:45.208Z,101605.72
2022-08-02T09:26:21.304Z,101604.47
2022-08-02T09:28:51.614Z,101608.00
2022-08-02T09:31:20.804Z,101611.13
2022-08-02T09:33:52.823Z,101620.72
2022-08-02T09:36:22.577Z,101616.13
2022-08-02T09:38:55.232Z,101616.97
2022-08-02T09:41:24.250Z,101616.97
2022-08-02T09:44:05.451Z,101620.09
2022-08-02T09:46:37.700Z,101619.06
2022-08-02T09:49:08.238Z,101613.81
2022-08-02T09:51:40.412Z,101603.00
2022-08-02T09:54:09.918Z,101610.31
2022-08-02T09:56:43.306Z,101610.94
2022-08-02T09:59:11.626Z,101611.78
2022-08-02T10:01:40.275Z,101616.34
2022-08-02T10:04:19.904Z,101613.66
2022-08-02T10:06:51.531Z,101614.03
2022-08-02T10:09:32.910Z,101620.72
2022-08-02T10:12:01.637Z,101614.03
2022-08-02T10:14:31.551Z,101630.50
2022-08-02T10:16:59.828Z,101627.59
2022-08-02T10:19:59.724Z,101622.38
2022-08-02T10:22:19.938Z,101631.13
2022-08-02T10:24:48.870Z,101630.28
2022-08-02T10:27:20.450Z,101637.16
2022-08-02T10:29:54.164Z,101639.47
2022-08-02T10:32:26.048Z,101640.06
2022-08-02T10:34:55.571Z,101635.69
2022-08-02T10:37:29.716Z,101643.59
2022-08-02T10:39:58.240Z,101633.13
2022-08-02T10:42:45.364Z,101642.69
2022-08-02T10:45:15.732Z,101628.28
2022-08-02T10:47:58.651Z,101656.41
2022-08-02T10:50:54.203Z,101657.63
2022-08-02T10:53:28.103Z,101643.63
2022-08-02T10:55:56.657Z,101660.66
2022-08-02T10:58:30.221Z,101646.69
2022-08-02T11:00:59.935Z,101664.78
2022-08-02T11:03:40.836Z,101658.16
2022-08-02T11:06:25.620Z,101652.56
2022-08-02T11:09:33.213Z,101651.31
2022-08-02T11:12:04.837Z,101650.13
2022-08-02T11:14:33.901Z,101650.50
2022-08-02T11:17:12.827Z,101654.25
2022-08-02T11:20:14.442Z,101639.03
2022-08-02T11:22:44.082Z,101654.88
2022-08-02T11:26:00.861Z,101662.56
2022-08-02T11:28:24.968Z,101654.44
2022-08-02T11:31:00.157Z,101655.03
2022-08-02T11:33:32.840Z,101654.41
2022-08-02T11:36:06.873Z,101636.88
2022-08-02T11:38:36.089Z,101635.22
2022-08-02T11:41:09.573Z,101636.06
2022-08-02T11:43:47.047Z,101641.44
2022-08-02T11:46:15.855Z,101648.50
2022-08-02T11:48:45.396Z,101620.34
2022-08-02T11:51:14.389Z,101627.53
2022-08-02T11:53:43.947Z,101620.44
2022-08-02T11:56:12.331Z,101636.78
2022-08-02T11:58:42.021Z,101638.81
2022-08-02T12:01:10.469Z,101621.31
2022-08-02T12:03:40.369Z,101620.50
2022-08-02T12:06:16.296Z,101629.66
2022-08-02T12:08:54.589Z,101630.09
2022-08-02T12:11:23.194Z,101623.56
2022-08-02T12:14:03.679Z,101616.91
2022-08-02T12:17:20.167Z,101624.38
2022-08-02T12:19:49.327Z,101623.09
2022-08-02T12:22:18.919Z,101620.22
2022-08-02T12:24:48.617Z,101624.13
2022-08-02T12:27:30.489Z,101617.50
2022-08-02T12:30:07.690Z,101620.72
2022-08-02T12:32:39.187Z,101619.09
2022-08-02T12:35:11.845Z,101598.50
2022-08-02T12:37:41.253Z,101603.38
2022-08-02T12:40:29.248Z,101608.53
2022-08-02T12:42:58.791Z,101599.50
2022-08-02T12:45:39.980Z,101601.22
2022-08-02T12:48:09.502Z,101604.13
2022-08-02T12:50:38.480Z,101595.50
2022-08-02T12:53:07.803Z,101599.25
2022-08-02T12:55:59.900Z,101610.91
2022-08-02T12:58:27.154Z,101608.47
2022-08-02T13:00:58.574Z,101608.81
2022-08-02T13:04:11.902Z,101599.50
2022-08-02T13:06:41.022Z,101617.56
2022-08-02T13:09:03.191Z,101605.84
2022-08-02T13:11:31.851Z,101591.47
2022-08-02T13:14:00.273Z,101602.59
2022-08-02T13:16:31.629Z,101602.38
2022-08-02T13:19:00.151Z,101609.13
2022-08-02T13:21:41.449Z,101609.16
2022-08-02T13:24:33.138Z,101604.56
2022-08-02T13:27:08.732Z,101603.22
2022-08-02T13:29:37.508Z,101599.69
2022-08-02T13:32:07.301Z,101590.66
2022-08-02T13:34:35.765Z,101603.63
2022-08-02T13:37:03.951Z,101605.31
2022-08-02T13:39:32.244Z,101593.22
2022-08-02T13:42:00.445Z,101608.28
2022-08-02T13:44:28.604Z,101594.34
2022-08-02T13:46:56.764Z,101596.88
2022-08-02T13:49:51.112Z,101604.56
2022-08-02T13:52:14.943Z,101597.94
2022-08-02T13:54:43.440Z,101588.09
2022-08-02T13:57:11.567Z,101602.50
2022-08-02T13:59:56.153Z,101581.00
2022-08-02T14:02:28.185Z,101593.19
2022-08-02T14:04:58.205Z,101594.22
2022-08-02T14:07:26.588Z,101592.56
2022-08-02T14:09:54.777Z,101575.84
2022-08-02T14:12:23.023Z,101585.84
2022-08-02T14:14:52.346Z,101586.22
2022-08-02T14:17:20.522Z,101577.44
2022-08-02T14:19:48.624Z,101590.50
2022-08-02T14:22:18.163Z,101581.22
2022-08-02T14:24:46.256Z,101602.50
2022-08-02T14:27:15.652Z,101585.31
2022-08-02T14:29:45.369Z,101587.44
2022-08-02T14:32:13.694Z,101585.63
2022-08-02T14:34:44.266Z,101576.22
2022-08-02T14:37:13.015Z,101589.59
2022-08-02T14:40:00.380Z,101583.25
2022-08-02T14:42:29.115Z,101589.88
2022-08-02T14:44:57.329Z,101569.19
2022-08-02T14:47:25.449Z,101568.34
2022-08-02T14:49:53.654Z,101568.97
2022-08-02T14:52:21.855Z,101583.94
2022-08-02T14:54:51.643Z,101573.50
2022-08-02T14:57:20.164Z,101572.53
2022-08-02T14:59:48.866Z,101571.41
2022-08-02T15:02:17.196Z,101570.84
2022-08-02T15:04:45.444Z,101562.56
2022-08-02T15:07:14.605Z,101569.47
2022-08-02T15:09:42.733Z,101570.97
2022-08-02T15:12:12.842Z,101565.38
2022-08-02T15:14:41.535Z,101568.44
2022-08-02T15:17:09.825Z,101561.50
2022-08-02T15:19:58.899Z,101571.22
2022-08-02T15:22:26.471Z,101565.00
2022-08-02T15:24:54.604Z,101568.16
2022-08-02T15:27:24.368Z,101573.41
2022-08-02T15:29:52.598Z,101566.94
2022-08-02T15:32:20.784Z,101570.06
2022-08-02T15:34:48.987Z,101583.84
2022-08-02T15:37:17.118Z,101589.53
2022-08-02T15:39:45.394Z,101572.03
2022-08-02T15:42:13.947Z,101580.34
2022-08-02T15:44:45.173Z,101576.81
2022-08-02T15:47:14.604Z,101575.59
2022-08-02T15:49:42.763Z,101569.78
2022-08-02T15:52:11.503Z,101552.50
2022-08-02T15:54:54.081Z,101549.38
2022-08-02T15:57:22.414Z,101556.88
2022-08-02T15:59:56.255Z,101556.31
2022-08-02T16:02:25.128Z,101550.69
2022-08-02T16:04:54.439Z,101549.03
2022-08-02T16:07:22.794Z,101548.22
2022-08-02T16:09:50.943Z,101544.03
2022-08-02T16:12:32.563Z,101550.69
2022-08-02T16:15:03.534Z,101546.13
2022-08-02T16:17:49.484Z,101545.06
2022-08-02T16:20:20.093Z,101549.25
2022-08-02T16:22:48.551Z,101543.63
2022-08-02T16:25:17.497Z,101529.91
2022-08-02T16:27:57.542Z,101535.94
2022-08-02T16:30:37.145Z,101541.78
2022-08-02T16:33:06.903Z,101535.31
2022-08-02T16:35:35.981Z,101537.00
2022-08-02T16:38:10.056Z,101543.88
2022-08-02T16:40:38.807Z,101537.22
2022-08-02T16:43:09.251Z,101547.41
2022-08-02T16:45:40.319Z,101552.81
2022-08-02T16:48:13.973Z,101545.75
2022-08-02T16:50:46.407Z,101538.91
2022-08-02T16:53:30.540Z,101548.69
2022-08-02T16:56:03.555Z,101539.94
2022-08-02T16:58:34.643Z,101542.66
2022-08-02T17:01:04.273Z,101534.72
2022-08-02T17:03:55.736Z,101537.81
2022-08-02T17:06:20.916Z,101549.50
2022-08-02T17:08:55.479Z,101539.31
2022-08-02T17:11:24.659Z,101552.00
2022-08-02T17:13:54.435Z,101536.59
2022-08-02T17:16:25.794Z,101529.09
2022-08-02T17:18:55.066Z,101541.38
2022-08-02T17:21:23.197Z,101525.56
2022-08-02T17:24:08.092Z,101530.34
2022-08-02T17:26:36.988Z,101540.75
2022-08-02T17:29:16.476Z,101517.03
2022-08-02T17:32:05.006Z,101530.75
2022-08-02T17:34:34.353Z,101522.22
2022-08-02T17:37:05.598Z,101518.66
2022-08-02T17:39:44.516Z,101517.44
2022-08-02T17:42:23.233Z,101513.69
2022-08-02T17:44:52.667Z,101521.59
2022-08-02T17:47:30.806Z,101519.53
2022-08-02T17:49:59.540Z,101515.97
2022-08-02T17:52:50.672Z,101511.59
2022-08-02T17:55:17.332Z,101521.41
2022-08-02T17:57:57.714Z,101521.59
2022-08-02T18:00:35.255Z,101514.72
2022-08-02T18:03:10.231Z,101515.56
2022-08-02T18:05:53.620Z,101514.94
2022-08-02T18:08:24.245Z,101514.94
2022-08-02T18:10:53.456Z,101515.16
2022-08-02T18:13:21.750Z,101523.66
2022-08-02T18:15:50.277Z,101512.44
2022-08-02T18:18:29.395Z,101511.19
2022-08-02T18:21:16.006Z,101518.69
2022-08-02T18:23:58.184Z,101509.75
2022-08-02T18:26:28.430Z,101506.19
2022-08-02T18:28:57.077Z,101501.63
2022-08-02T18:31:27.041Z,101506.19
2022-08-02T18:34:01.857Z,101500.34
2022-08-02T18:36:30.726Z,101516.19
2022-08-02T18:38:59.575Z,101507.44
2022-08-02T18:41:36.606Z,101508.47
2022-08-02T18:44:06.656Z,101510.13
2022-08-02T18:46:34.839Z,101507.63
2022-08-02T18:49:06.641Z,101517.38
2022-08-02T18:51:42.945Z,101511.13
2022-08-02T18:54:11.249Z,101501.97
2022-08-02T18:56:40.061Z,101504.47
2022-08-02T18:59:08.396Z,101503.19
2022-08-02T19:01:46.620Z,101503.63
2022-08-02T19:04:27.900Z,101492.19
2022-08-02T19:07:05.471Z,101489.03
2022-08-02T19:09:39.804Z,101490.50
2022-08-02T19:12:11.519Z,101498.16
2022-08-02T19:14:41.035Z,101496.50
2022-08-02T19:17:15.873Z,101490.28
2022-08-02T19:19:46.174Z,101484.44
2022-08-02T19:22:20.078Z,101487.31
2022-08-02T19:24:51.895Z,101486.69
2022-08-02T19:27:25.894Z,101496.88
2022-08-02T19:29:54.495Z,101494.78
2022-08-02T19:32:41.502Z,101491.06
2022-08-02T19:35:19.065Z,101494.56
2022-08-02T19:37:59.644Z,101490.19
2022-08-02T19:44:25.848Z,101486.44
2022-08-02T19:46:05.256Z,101477.31
2022-08-02T19:48:33.550Z,101480.22
2022-08-02T19:51:08.057Z,101475.66
2022-08-02T19:53:46.957Z,101478.53
2022-08-02T19:56:21.007Z,101473.34
2022-08-02T19:58:51.443Z,101475.22
2022-08-02T20:04:13.453Z,101476.66
2022-08-02T20:06:45.964Z,101471.91
2022-08-02T20:09:16.480Z,101461.47
2022-08-02T20:11:45.365Z,101482.28
2022-08-02T20:14:13.706Z,101481.44
2022-08-02T20:16:41.913Z,101484.78
2022-08-02T20:19:10.058Z,101483.34
2022-08-02T20:21:42.751Z,101487.22
2022-08-02T20:24:14.590Z,101485.19
2022-08-02T20:26:47.892Z,101481.41
2022-08-02T20:29:17.606Z,101492.44
2022-08-02T20:32:05.569Z,101481.81
2022-08-02T20:34:36.759Z,101478.94
2022-08-02T20:38:00.971Z,101492.22
2022-08-02T20:39:54.848Z,101484.13
2022-08-02T20:42:24.702Z,101493.28
2022-08-02T20:44:55.113Z,101484.13
2022-08-02T20:47:38.962Z,101474.16
2022-08-02T20:50:30.451Z,101479.34
2022-08-02T20:52:59.766Z,101473.06
2022-08-02T20:55:31.109Z,101483.03
2022-08-02T20:58:01.810Z,101474.75
2022-08-02T21:00:31.739Z,101473.06
2022-08-02T21:03:00.150Z,101477.44
2022-08-02T21:05:43.806Z,101482.00
2022-08-02T21:08:17.867Z,101478.47
2022-08-02T21:10:52.241Z,101473.06
2022-08-02T21:13:24.084Z,101466.81
2022-08-02T21:15:53.364Z,101469.34
2022-08-02T21:18:35.472Z,101471.84
2022-08-02T21:21:09.762Z,101465.22
2022-08-02T21:23:44.918Z,101459.81
2022-08-02T21:26:19.681Z,101471.69
2022-08-02T21:28:55.407Z,101471.91
2022-08-02T21:31:30.136Z,101461.09
2022-08-02T21:34:00.877Z,101464.63
2022-08-02T21:36:30.825Z,101475.22
2022-08-02T21:39:04.728Z,101474.59
2022-08-02T21:41:46.406Z,101466.28
2022-08-02T21:44:16.559Z,101486.81
2022-08-02T21:46:46.007Z,101485.19
2022-08-02T21:49:14.910Z,101487.22
2022-08-02T21:51:49.339Z,101480.34
2022-08-02T21:54:20.380Z,101487.38
2022-08-02T21:56:51.971Z,101484.22
2022-08-02T21:59:25.810Z,101482.97
2022-08-02T22:01:56.997Z,101483.38
2022-08-02T22:04:47.845Z,101476.91
2022-08-02T22:07:24.038Z,101471.50
2022-08-02T22:09:53.480Z,101464.44
2022-08-02T22:12:25.876Z,101463.59
2022-08-02T22:14:56.607Z,101460.72
2022-08-02T22:20:20.157Z,101453.91
2022-08-02T22:22:52.644Z,101456.97
2022-08-02T22:25:31.419Z,101447.22
2022-08-02T22:28:35.256Z,101455.13
2022-08-02T22:30:58.258Z,101445.53
2022-08-02T22:33:47.035Z,101448.88
2022-08-02T22:36:28.982Z,101451.38
2022-08-02T22:38:57.112Z,101445.97
2022-08-02T22:41:25.281Z,101444.28
2022-08-02T22:44:15.115Z,101440.56
2022-08-02T22:46:46.928Z,101444.09
2022-08-02T22:49:37.011Z,101437.88
2022-08-02T22:52:06.202Z,101436.84
2022-08-02T22:54:34.619Z,101437.44
2022-08-02T22:57:02.894Z,101436.41
2022-08-02T22:59:04.572Z,101457.63
2022-08-02T22:59:06.081Z,101492.28
2022-08-02T22:59:06.635Z,101481.25
2022-08-02T22:59:39.835Z,101428.75
2022-08-02T23:02:08.911Z,101433.31
2022-08-02T23:04:37.659Z,101435.59
2022-08-02T23:07:05.864Z,101431.47
2022-08-02T23:09:34.084Z,101441.00
2022-08-02T23:12:02.218Z,101437.28
2022-08-02T23:14:30.345Z,101437.28
2022-08-02T23:17:17.251Z,101433.13
2022-08-02T23:19:54.579Z,101432.28
2022-08-02T23:22:29.139Z,101421.88
2022-08-02T23:24:58.737Z,101428.56
2022-08-02T23:27:26.843Z,101421.91
2022-08-02T23:29:57.260Z,101418.19
2022-08-02T23:32:26.774Z,101433.16
2022-08-02T23:34:55.151Z,101434.41
2022-08-02T23:37:23.767Z,101432.34
2022-08-02T23:39:51.928Z,101430.69
2022-08-02T23:42:20.011Z,101418.84
2022-08-02T23:44:48.156Z,101416.53
2022-08-02T23:47:16.995Z,101421.31
2022-08-02T23:49:46.664Z,101421.31
2022-08-02T23:52:14.950Z,101420.47
2022-08-02T23:54:43.269Z,101421.06
2022-08-02T23:57:20.488Z,101418.16
2022-08-02T23:59:49.799Z,101413.41
